Time;durP1;ratioP1;P1;durP2;ratioP2;P2;SDS_P1;SDS_P2;PMS_P1;PMS_P2;Temp;Humidity;BMP_temperature;BMP_pressure;BME280_temperature;BME280_humidity;BME280_pressure;Samples;Min_cycle;Max_cycle;Signal;HPM_P1;HPM_P2
2021/05/12 00:00:00;;;;;;;4.13;3.00;;;;;;;12.58;63.16;100542.72;5074608;28;20228;-72
2021/05/12 00:02:28;;;;;;;430.60;243.33;;;;;;;12.47;63.41;100532.75;5073930;28;20198;-72
2021/05/12 00:04:56;;;;;;;341.07;193.90;;;;;;;12.52;63.29;100540.47;5060469;28;20688;-72
2021/05/12 00:07:24;;;;;;;15.73;10.83;;;;;;;12.51;63.32;100539.63;5074376;28;20202;-72
2021/05/12 00:09:51;;;;;;;8.07;6.53;;;;;;;12.44;63.96;100543.78;5072678;28;20210;-72
2021/05/12 00:12:19;;;;;;;5.93;5.00;;;;;;;12.17;65.12;100498.34;5074007;28;20198;-72
2021/05/12 00:14:48;;;;;;;6.93;4.47;;;;;;;12.43;64.20;100547.44;5074024;28;20201;-72
2021/05/12 00:17:18;;;;;;;10.63;3.87;;;;;;;12.43;63.82;100536.69;5073076;28;20205;-72
2021/05/12 00:19:53;;;;;;;6.87;3.47;;;;;;;12.43;64.06;100526.75;5074333;28;20248;-72
2021/05/12 00:22:33;;;;;;;4.63;3.43;;;;;;;12.40;64.09;100535.09;5070432;28;20589;-72
2021/05/12 00:25:01;;;;;;;5.17;3.10;;;;;;;12.10;64.11;100494.41;5068185;28;20193;-72
2021/05/12 00:27:28;;;;;;;7.07;3.53;;;;;;;12.30;64.32;100531.41;5070023;28;20222;-72
2021/05/12 00:29:57;;;;;;;5.90;4.33;;;;;;;12.10;64.47;100491.72;5052858;28;20771;-72
2021/05/12 00:32:24;;;;;;;8.27;6.00;;;;;;;12.27;64.48;100517.34;5069643;28;20194;-72
2021/05/12 00:34:52;;;;;;;5.50;3.33;;;;;;;12.20;64.22;100508.84;5070904;28;20209;-72
2021/05/12 00:37:20;;;;;;;4.63;3.87;;;;;;;12.24;64.53;100517.56;5070381;28;20200;-72
2021/05/12 00:39:47;;;;;;;5.00;3.43;;;;;;;12.19;65.37;100514.38;5056352;28;20717;-72
2021/05/12 00:42:15;;;;;;;5.60;3.13;;;;;;;12.12;64.97;100506.78;5071211;28;20204;-72
2021/05/12 00:44:42;;;;;;;4.67;3.27;;;;;;;12.15;64.72;100519.13;5062422;28;20190;-72
2021/05/12 00:47:11;;;;;;;5.87;3.53;;;;;;;12.09;65.18;100516.94;5070536;28;20224;-73
2021/05/12 00:49:38;;;;;;;5.20;3.13;;;;;;;12.06;65.07;100519.88;5059908;28;20199;-72
2021/05/12 00:52:06;;;;;;;6.30;3.07;;;;;;;12.04;64.37;100509.22;5068853;28;20207;-72
2021/05/12 00:54:34;;;;;;;9.10;2.97;;;;;;;12.04;64.85;100506.53;5073873;28;20671;-72
2021/05/12 00:57:03;;;;;;;6.17;2.97;;;;;;;12.01;64.45;100512.16;5079906;28;20213;-73
2021/05/12 00:59:33;;;;;;;8.40;3.20;;;;;;;11.99;64.60;100511.41;5070535;28;20571;-73
2021/05/12 01:02:02;;;;;;;7.30;3.03;;;;;;;11.77;64.23;100477.19;5069266;28;20271;-73
2021/05/12 01:04:30;;;;;;;5.70;3.03;;;;;;;11.96;64.18;100510.78;5070176;28;20197;-73
2021/05/12 01:06:58;;;;;;;7.20;3.30;;;;;;;11.90;64.47;100501.34;5051683;28;20576;-73
2021/05/12 01:09:25;;;;;;;3.90;2.70;;;;;;;11.91;64.25;100507.56;5069931;28;20714;-73
2021/05/12 01:11:53;;;;;;;9.23;3.37;;;;;;;11.73;64.76;100478.41;5077011;28;20225;-73
2021/05/12 01:14:21;;;;;;;3.67;2.90;;;;;;;11.82;64.66;100512.69;5073016;28;20194;-73
2021/05/12 01:16:49;;;;;;;7.27;3.03;;;;;;;11.80;64.77;100500.34;5080288;28;20204;-73
2021/05/12 01:19:18;;;;;;;5.97;3.10;;;;;;;11.79;64.92;100495.94;5068856;28;20277;-73
2021/05/12 01:21:47;;;;;;;10.63;3.50;;;;;;;11.77;64.68;100495.16;5066490;28;20204;-73
2021/05/12 01:24:14;;;;;;;5.17;3.00;;;;;;;11.70;65.07;100500.16;5075555;28;20257;-73
2021/05/12 01:26:42;;;;;;;4.07;2.90;;;;;;;11.70;64.80;100496.63;5070302;28;20688;-73
2021/05/12 01:29:10;;;;;;;8.00;3.13;;;;;;;11.66;65.15;100498.69;5068861;28;20738;-73
2021/05/12 01:31:40;;;;;;;7.17;3.60;;;;;;;11.64;64.45;100489.03;5064035;28;20570;-73
2021/05/12 01:34:12;;;;;;;6.77;2.90;;;;;;;11.63;65.11;100479.22;5064361;28;20705;-73
2021/05/12 01:36:41;;;;;;;7.40;2.93;;;;;;;11.55;65.69;100487.00;5056322;28;20690;-73
2021/05/12 01:39:10;;;;;;;6.60;3.40;;;;;;;11.58;65.28;100492.16;5050143;28;20215;-73
2021/05/12 01:41:38;;;;;;;4.40;2.80;;;;;;;11.57;64.58;100493.13;5068579;28;20197;-73
2021/05/12 01:44:10;;;;;;;3.57;2.77;;;;;;;11.55;65.05;100487.00;5068817;28;20198;-73
2021/05/12 01:46:38;;;;;;;3.83;2.60;;;;;;;11.49;65.73;100494.56;5078786;28;20221;-73
2021/05/12 01:49:06;;;;;;;5.17;3.30;;;;;;;11.48;65.60;100475.88;5072015;28;20201;-73
2021/05/12 01:51:34;;;;;;;4.67;2.73;;;;;;;11.39;65.83;100458.59;5075783;28;20221;-73
2021/05/12 01:54:02;;;;;;;7.27;3.13;;;;;;;11.59;65.19;100480.41;5066706;28;20200;-73
2021/05/12 01:56:33;;;;;;;5.53;3.27;;;;;;;11.52;65.44;100486.28;5068029;28;20198;-73
2021/05/12 01:59:01;;;;;;;6.80;3.37;;;;;;;11.51;65.81;100484.56;5067664;28;20205;-73
2021/05/12 02:01:29;;;;;;;4.83;2.97;;;;;;;11.41;65.79;100480.84;5068522;28;20209;-73
2021/05/12 02:04:00;;;;;;;6.73;2.90;;;;;;;11.42;65.96;100485.25;5068268;28;20216;-73
2021/05/12 02:06:28;;;;;;;5.07;3.17;;;;;;;11.35;66.33;100477.78;5067716;28;20515;-72
2021/05/12 02:08:55;;;;;;;4.90;3.53;;;;;;;11.36;66.13;100483.03;5079277;28;20200;-73
2021/05/12 02:11:23;;;;;;;3.83;3.10;;;;;;;11.40;65.64;100479.16;5062987;28;20245;-73
2021/05/12 02:13:52;;;;;;;8.57;3.23;;;;;;;11.43;65.17;100478.91;5087661;28;20200;-72
2021/05/12 02:16:19;;;;;;;5.37;2.83;;;;;;;11.46;65.38;100470.59;5075393;28;20201;-73
2021/05/12 02:18:47;;;;;;;4.83;3.00;;;;;;;11.49;64.71;100473.06;5078782;28;20209;-72
2021/05/12 02:21:14;;;;;;;5.87;3.30;;;;;;;11.48;64.79;100475.88;5071859;28;20607;-72
2021/05/12 02:23:42;;;;;;;3.77;2.97;;;;;;;11.17;65.87;100426.25;5059785;28;20198;-72
2021/05/12 02:26:10;;;;;;;4.67;3.07;;;;;;;11.37;66.47;100471.31;5068865;28;20200;-73
2021/05/12 02:28:37;;;;;;;5.33;3.03;;;;;;;11.36;66.88;100458.84;5065737;28;20454;-72
2021/05/12 02:31:06;;;;;;;4.77;3.03;;;;;;;11.49;66.23;100451.53;5058235;28;20227;-72
2021/05/12 02:33:33;;;;;;;4.67;3.03;;;;;;;11.60;65.52;100460.63;5063719;28;20577;-72
2021/05/12 02:36:01;;;;;;;6.20;2.60;;;;;;;11.67;64.86;100451.13;5071358;28;20552;-72
2021/05/12 02:38:30;;;;;;;5.57;2.80;;;;;;;11.74;64.55;100441.59;5081047;28;20687;-72
2021/05/12 02:40:58;;;;;;;8.63;3.00;;;;;;;11.77;65.07;100449.44;5064745;28;20189;-72
2021/05/12 02:43:25;;;;;;;2.80;2.60;;;;;;;11.82;64.37;100450.81;5068710;28;20442;-72
2021/05/12 02:45:53;;;;;;;4.93;2.90;;;;;;;11.86;64.20;100445.19;5067227;28;20228;-72
2021/05/12 02:48:21;;;;;;;4.93;2.80;;;;;;;11.75;64.70;100429.84;5056653;28;20204;-72
2021/05/12 02:50:49;;;;;;;3.13;2.50;;;;;;;11.87;64.35;100439.69;5065605;28;20626;-72
2021/05/12 02:53:16;;;;;;;6.83;2.90;;;;;;;11.89;64.61;100428.81;5058630;28;20210;-72
2021/05/12 02:55:44;;;;;;;4.43;3.10;;;;;;;11.95;64.46;100429.22;5050783;28;20202;-73
2021/05/12 02:58:11;;;;;;;4.60;2.80;;;;;;;12.02;63.88;100434.94;5065284;28;20201;-73
2021/05/12 03:00:41;;;;;;;63.07;39.57;;;;;;;12.01;65.62;100439.47;5066361;28;20282;-73
2021/05/12 03:03:09;;;;;;;5.30;3.60;;;;;;;12.03;66.09;100436.66;5068523;28;20189;-72
2021/05/12 03:05:39;;;;;;;6.47;4.70;;;;;;;12.20;65.21;100440.69;5058694;28;20242;-73
2021/05/12 03:08:08;;;;;;;5.33;3.70;;;;;;;12.36;64.47;100435.81;5058963;28;20197;-73
2021/05/12 03:10:36;;;;;;;5.30;3.17;;;;;;;12.40;64.04;100421.13;5059911;28;20202;-73
2021/05/12 03:13:06;;;;;;;3.70;2.90;;;;;;;12.65;63.73;100439.72;5063818;28;20660;-73
2021/05/12 03:15:36;;;;;;;10.10;4.80;;;;;;;12.74;64.33;100435.41;5065775;28;20227;-73
2021/05/12 03:18:05;;;;;;;4.00;3.10;;;;;;;12.93;64.51;100426.69;5067540;28;20193;-73
2021/05/12 03:20:34;;;;;;;3.80;3.10;;;;;;;13.15;64.37;100426.56;5048733;28;20300;-73
2021/05/12 03:23:03;;;;;;;4.33;2.93;;;;;;;13.31;64.20;100432.44;5043738;28;20303;-73
2021/05/12 03:25:31;;;;;;;6.43;3.00;;;;;;;13.50;63.68;100429.06;5057823;28;20205;-73
2021/05/12 03:27:59;;;;;;;5.17;2.87;;;;;;;13.72;63.31;100422.66;5063210;28;20250;-73
2021/05/12 03:30:29;;;;;;;3.63;2.73;;;;;;;13.91;63.03;100430.03;5058031;28;20196;-74
2021/05/12 03:32:57;;;;;;;4.80;3.27;;;;;;;13.89;63.01;100403.16;5063464;28;20262;-74
2021/05/12 03:35:25;;;;;;;8.40;2.67;;;;;;;14.21;62.50;100421.09;5064983;28;20480;-74
2021/05/12 03:37:53;;;;;;;3.53;2.83;;;;;;;14.15;62.26;100389.22;5043272;28;20685;-74
2021/05/12 03:40:22;;;;;;;4.43;3.10;;;;;;;14.47;61.77;100413.41;5062154;28;20204;-73
2021/05/12 03:42:50;;;;;;;5.37;2.73;;;;;;;14.52;61.60;100412.00;5066980;28;20200;-73
2021/05/12 03:45:18;;;;;;;9.37;3.30;;;;;;;14.40;61.13;100364.44;5060934;28;20203;-73
2021/05/12 03:47:47;;;;;;;4.97;3.00;;;;;;;14.75;61.69;100409.09;5076412;28;20200;-74
2021/05/12 03:50:16;;;;;;;5.27;2.83;;;;;;;14.76;61.83;100405.38;5067344;28;20203;-74
2021/05/12 03:52:44;;;;;;;6.67;2.60;;;;;;;14.73;62.07;100408.38;5069323;28;20217;-74
2021/05/12 03:55:12;;;;;;;4.73;3.00;;;;;;;14.70;61.52;100411.34;5081796;28;20212;-73
2021/05/12 03:57:41;;;;;;;3.93;3.07;;;;;;;14.55;61.75;100416.28;5068190;28;20202;-73
2021/05/12 04:00:10;;;;;;;9.87;2.80;;;;;;;14.58;61.30;100416.84;5071709;28;20193;-74
2021/05/12 04:02:41;;;;;;;3.30;2.40;;;;;;;14.66;61.21;100408.03;5072754;28;20197;-73
2021/05/12 04:05:11;;;;;;;3.67;2.80;;;;;;;14.55;62.79;100413.56;5058601;28;20224;-74
2021/05/12 04:07:38;;;;;;;8.10;2.50;;;;;;;14.11;61.51;100361.66;5068794;28;20232;-73
2021/05/12 04:10:08;;;;;;;6.70;2.97;;;;;;;14.30;62.97;100404.91;5080706;28;20193;-73
2021/05/12 04:12:36;;;;;;;8.13;2.80;;;;;;;14.17;62.20;100398.91;5062050;28;20216;-72
2021/05/12 04:15:07;;;;;;;4.17;2.90;;;;;;;14.22;62.75;100402.06;5065489;28;20232;-72
2021/05/12 04:17:35;;;;;;;3.23;2.60;;;;;;;14.19;62.01;100399.63;5063048;28;20198;-73
2021/05/12 04:20:03;;;;;;;4.10;2.70;;;;;;;14.16;61.43;100409.84;5068145;28;20565;-72
2021/05/12 04:22:31;;;;;;;3.87;2.57;;;;;;;14.30;61.93;100410.31;5056968;28;20248;-72
2021/05/12 04:24:58;;;;;;;5.60;2.80;;;;;;;14.23;62.21;100398.34;5057765;28;20312;-72
2021/05/12 04:27:26;;;;;;;3.80;2.60;;;;;;;14.32;61.97;100404.78;5063034;28;20313;-73
2021/05/12 04:29:54;;;;;;;3.97;2.80;;;;;;;14.39;62.12;100399.69;5067295;28;20197;-73
2021/05/12 04:32:23;;;;;;;7.23;2.63;;;;;;;14.48;61.26;100410.56;5061218;28;20303;-73
2021/05/12 04:34:50;;;;;;;5.23;2.97;;;;;;;14.55;61.07;100402.75;5066175;28;20207;-73
2021/05/12 04:37:18;;;;;;;4.70;2.60;;;;;;;14.65;61.45;100400.09;5064011;28;20208;-73
2021/05/12 04:39:45;;;;;;;4.33;2.50;;;;;;;14.71;60.75;100403.09;5059931;28;20205;-73
2021/05/12 04:42:13;;;;;;;3.93;2.43;;;;;;;14.77;60.61;100401.69;5062615;28;20208;-73
2021/05/12 04:44:40;;;;;;;5.37;2.77;;;;;;;14.52;60.52;100379.56;5059880;28;20210;-73
2021/05/12 04:47:08;;;;;;;3.70;2.80;;;;;;;14.71;60.28;100418.47;5060159;28;20204;-73
2021/05/12 04:49:37;;;;;;;4.20;2.50;;;;;;;14.71;60.70;100418.47;5060287;28;20200;-74
2021/05/12 04:52:05;;;;;;;4.30;2.60;;;;;;;14.74;60.54;100405.53;5058715;28;20228;-74
2021/05/12 04:54:33;;;;;;;4.63;2.53;;;;;;;14.80;60.21;100402.25;5053345;28;20259;-73
2021/05/12 04:57:00;;;;;;;5.70;3.00;;;;;;;14.58;60.25;100362.81;5054560;28;20206;-73
2021/05/12 04:59:28;;;;;;;3.37;2.40;;;;;;;15.03;60.62;100413.69;5055926;28;20698;-74
2021/05/12 05:01:55;;;;;;;4.60;2.77;;;;;;;15.09;60.10;100423.94;5055726;28;20197;-74
2021/05/12 05:04:24;;;;;;;4.30;2.57;;;;;;;15.00;60.12;100413.09;5051405;28;20670;-74
2021/05/12 05:06:52;;;;;;;3.47;2.60;;;;;;;15.09;59.56;100407.72;5047753;28;20201;-73
2021/05/12 05:09:22;;;;;;;8.90;2.60;;;;;;;15.08;59.23;100389.78;5048160;28;20216;-73
2021/05/12 05:11:49;;;;;;;4.77;3.47;;;;;;;15.22;58.88;100408.28;5047312;28;20226;-73
2021/05/12 05:14:18;;;;;;;3.07;2.50;;;;;;;15.23;57.98;100409.97;5053959;28;20240;-72
2021/05/12 05:16:47;;;;;;;6.63;2.70;;;;;;;15.38;58.75;100406.88;5056688;28;20706;-73
2021/05/12 05:19:14;;;;;;;3.60;2.50;;;;;;;15.45;58.52;100408.00;5044551;28;20584;-73
2021/05/12 05:21:42;;;;;;;4.23;2.70;;;;;;;15.53;57.68;100411.69;5047653;28;20225;-72
2021/05/12 05:24:10;;;;;;;6.53;2.70;;;;;;;15.68;57.45;100412.13;5059570;28;20224;-73
2021/05/12 05:26:38;;;;;;;4.13;2.60;;;;;;;15.77;57.42;100405.00;5062606;28;20197;-72
2021/05/12 05:29:06;;;;;;;5.07;2.77;;;;;;;15.69;56.66;100399.47;5064285;28;20236;-72
2021/05/12 05:31:33;;;;;;;5.13;2.83;;;;;;;16.06;57.50;100405.78;5059426;28;20300;-72
2021/05/12 05:34:39;;;;;;;5.63;2.50;;;;;;;16.21;56.49;100402.56;4975644;28;20793;-73
2021/05/12 05:37:25;;;;;;;3.63;2.60;;;;;;;16.38;56.98;100409.94;4971512;28;20218;-72
2021/05/12 05:40:26;;;;;;;3.50;2.60;;;;;;;16.44;54.25;100414.75;5013310;28;20217;-72
2021/05/12 05:43:13;;;;;;;3.37;2.57;;;;;;;16.48;55.60;100402.59;5062918;28;20248;-73
2021/05/12 05:45:59;;;;;;;4.03;2.50;;;;;;;16.62;55.63;100390.41;5063673;28;20575;-73
2021/05/12 05:48:45;;;;;;;4.67;2.77;;;;;;;16.59;54.83;100398.84;5065075;28;20310;-72
2021/05/12 05:51:39;;;;;;;3.43;2.43;;;;;;;16.57;54.13;100399.00;5024899;28;20234;-72
2021/05/12 05:54:26;;;;;;;5.87;3.00;;;;;;;16.85;55.42;100405.28;5058561;28;20711;-73
2021/05/12 05:57:15;;;;;;;6.73;2.77;;;;;;;16.88;55.25;100393.28;5052618;28;20217;-72
2021/05/12 06:00:01;;;;;;;6.43;2.53;;;;;;;17.11;53.70;100394.50;5055282;28;20207;-73
2021/05/12 06:02:43;;;;;;;5.10;2.47;;;;;;;17.40;54.87;100397.00;5066228;28;20651;-72
2021/05/12 06:05:29;;;;;;;5.20;2.53;;;;;;;17.35;53.70;100380.31;5061815;28;20302;-71
2021/05/12 06:08:15;;;;;;;3.83;2.63;;;;;;;17.12;53.76;100362.81;5054209;28;20591;-71
2021/05/12 06:11:02;;;;;;;5.13;2.57;;;;;;;17.52;53.38;100398.47;5052273;28;20212;-71
2021/05/12 06:13:50;;;;;;;6.63;2.80;;;;;;;17.33;52.69;100374.19;5058697;28;20204;-71
2021/05/12 06:16:36;;;;;;;3.97;2.63;;;;;;;17.41;52.18;100382.41;5065809;28;20217;-71
2021/05/12 06:19:23;;;;;;;4.33;2.40;;;;;;;17.71;51.25;100396.59;5065825;28;20208;-71
2021/05/12 06:22:09;;;;;;;4.10;2.43;;;;;;;17.97;52.51;100420.03;5066749;28;20257;-71
2021/05/12 06:24:55;;;;;;;3.93;2.30;;;;;;;17.97;51.20;100417.31;5067736;28;20794;-71
2021/05/12 06:27:42;;;;;;;7.83;2.57;;;;;;;17.99;51.31;100411.72;5066843;28;20457;-72
2021/05/12 06:30:29;;;;;;;8.80;2.47;;;;;;;18.03;51.69;100409.53;5065914;28;20343;-71
2021/05/12 06:33:16;;;;;;;2.73;2.50;;;;;;;17.78;53.51;100403.13;5075962;28;20235;-71
2021/05/12 06:36:03;;;;;;;2.77;2.50;;;;;;;17.73;52.68;100389.13;5046923;28;20213;-71
2021/05/12 06:38:52;;;;;;;3.33;2.70;;;;;;;17.81;52.27;100376.47;5068451;28;20211;-71
2021/05/12 06:41:21;;;;;;;3.27;2.57;;;;;;;17.96;52.72;100387.59;5055160;28;20239;-71
2021/05/12 06:43:49;;;;;;;6.13;2.70;;;;;;;18.01;52.18;100393.41;5069108;28;20237;-71
2021/05/12 06:46:18;;;;;;;2.80;2.43;;;;;;;17.82;52.47;100320.28;5059542;28;20275;-71
2021/05/12 06:48:46;;;;;;;2.90;2.30;;;;;;;18.53;51.24;100391.47;5063617;28;20557;-70
2021/05/12 06:51:14;;;;;;;3.23;2.30;;;;;;;18.51;51.85;100392.66;5068608;28;20201;-70
2021/05/12 06:53:41;;;;;;;3.43;2.67;;;;;;;18.48;51.36;100384.81;5067561;28;20750;-71
2021/05/12 06:56:09;;;;;;;4.30;2.47;;;;;;;18.45;50.09;100368.84;5050361;28;20197;-71
2021/05/12 06:58:41;;;;;;;6.87;2.67;;;;;;;18.35;49.98;100308.28;5063974;28;20620;-71
2021/05/12 07:01:09;;;;;;;4.30;2.53;;;;;;;18.64;49.60;100382.19;5062571;28;20193;-71
2021/05/12 07:03:38;;;;;;;7.27;2.40;;;;;;;18.72;50.91;100384.94;5054491;28;20736;-71
2021/05/12 07:06:06;;;;;;;3.70;2.20;;;;;;;18.60;50.12;100367.16;5064016;28;20228;-71
2021/05/12 07:08:34;;;;;;;3.43;2.50;;;;;;;18.96;50.78;100372.41;5067026;28;20632;-71
2021/05/12 07:11:03;;;;;;;3.63;2.70;;;;;;;19.05;50.50;100339.59;5063708;28;20290;-71
2021/05/12 07:13:31;;;;;;;3.97;2.70;;;;;;;19.42;49.43;100392.72;5065107;28;20228;-70
2021/05/12 07:15:58;;;;;;;6.17;2.70;;;;;;;19.27;48.95;100397.13;5061102;28;20202;-72
2021/05/12 07:18:26;;;;;;;11.33;2.83;;;;;;;19.39;49.52;100402.06;5061034;28;20229;-71
2021/05/12 07:20:54;;;;;;;5.17;2.33;;;;;;;19.49;49.32;100402.75;5043189;28;20283;-71
2021/05/12 07:23:23;;;;;;;3.07;2.50;;;;;;;19.58;48.05;100405.50;5066805;28;20196;-71
2021/05/12 07:25:52;;;;;;;4.17;2.40;;;;;;;19.51;48.38;100400.72;5052177;28;20617;-72
2021/05/12 07:28:19;;;;;;;5.00;2.57;;;;;;;19.23;48.69;100402.06;5067931;28;20868;-71
2021/05/12 07:30:48;;;;;;;6.00;2.37;;;;;;;19.34;48.61;100404.47;5064224;28;20279;-71
2021/05/12 07:33:35;;;;;;;6.67;2.30;;;;;;;19.16;49.15;100395.56;5068697;28;20228;-71
2021/05/12 07:36:05;;;;;;;5.70;2.67;;;;;;;19.29;49.22;100398.69;5067457;28;20194;-71
2021/05/12 07:38:32;;;;;;;7.10;2.90;;;;;;;19.19;47.94;100397.97;5055989;28;20656;-72
2021/05/12 07:41:02;;;;;;;5.60;2.97;;;;;;;19.14;49.38;100406.63;5062986;28;20189;-71
2021/05/12 07:43:29;;;;;;;4.57;2.40;;;;;;;19.36;48.34;100407.88;5072019;28;20216;-71
2021/05/12 07:45:58;;;;;;;2.87;2.60;;;;;;;19.28;49.77;100415.16;5056589;28;20232;-71
2021/05/12 07:48:26;;;;;;;4.73;2.93;;;;;;;19.63;48.19;100408.59;5070339;28;20201;-72
2021/05/12 07:50:54;;;;;;;13.47;3.43;;;;;;;19.72;47.70;100404.84;5070456;28;20209;-70
2021/05/12 07:53:23;;;;;;;3.83;2.40;;;;;;;19.72;47.43;100396.66;5071826;28;20577;-70
2021/05/12 07:55:50;;;;;;;3.67;2.43;;;;;;;19.70;46.40;100401.44;5070924;28;20197;-70
2021/05/12 07:58:18;;;;;;;8.97;2.50;;;;;;;19.45;48.22;100401.41;5071872;28;20197;-71
2021/05/12 08:00:46;;;;;;;3.93;2.37;;;;;;;19.50;47.43;100399.00;5069528;28;20236;-70
2021/05/12 08:03:14;;;;;;;4.50;2.30;;;;;;;19.40;47.77;100395.59;5060028;28;20189;-69
2021/05/12 08:05:41;;;;;;;3.33;2.43;;;;;;;19.25;48.15;100391.84;5070700;28;20197;-70
2021/05/12 08:08:09;;;;;;;7.70;2.00;;;;;;;19.19;48.38;100397.97;5066332;28;20198;-70
2021/05/12 08:10:38;;;;;;;7.57;2.10;;;;;;;19.23;48.77;100402.06;5075448;28;20677;-72
2021/05/12 08:13:06;;;;;;;2.90;2.40;;;;;;;19.24;48.02;100403.75;5071021;28;20224;-72
2021/05/12 08:15:33;;;;;;;3.83;2.40;;;;;;;19.18;47.17;100409.88;5067301;28;20208;-72
2021/05/12 08:18:01;;;;;;;5.80;2.60;;;;;;;19.14;47.77;100413.94;5071433;28;20268;-72
2021/05/12 08:20:29;;;;;;;2.73;2.10;;;;;;;19.39;47.47;100415.69;5072154;28;20205;-72
2021/05/12 08:22:56;;;;;;;2.77;2.00;;;;;;;19.34;46.58;100411.78;5068940;28;20280;-72
2021/05/12 08:25:24;;;;;;;4.03;2.33;;;;;;;19.12;47.34;100377.88;5071491;28;20201;-72
2021/05/12 08:27:54;;;;;;;3.27;2.37;;;;;;;19.48;46.04;100414.66;5070987;28;20241;-72
2021/05/12 08:30:23;;;;;;;5.33;2.60;;;;;;;19.20;47.12;100386.06;5069071;28;20299;-72
2021/05/12 08:32:52;;;;;;;5.83;2.53;;;;;;;19.32;46.50;100394.75;5068963;28;20217;-72
2021/05/12 08:35:20;;;;;;;6.03;2.37;;;;;;;19.21;46.57;100382.31;5063505;28;20224;-72
2021/05/12 08:37:51;;;;;;;2.30;2.07;;;;;;;19.26;46.62;100388.09;5071900;28;20194;-72
2021/05/12 08:40:20;;;;;;;5.50;2.50;;;;;;;19.52;46.51;100412.47;5070280;28;20197;-72
2021/05/12 08:42:50;;;;;;;2.40;2.20;;;;;;;19.58;47.35;100408.22;5071163;28;20556;-73
2021/05/12 08:45:19;;;;;;;4.50;2.40;;;;;;;19.56;46.00;100407.53;5061862;28;20293;-72
2021/05/12 08:47:54;;;;;;;4.37;2.33;;;;;;;19.54;45.65;100405.84;5066811;28;20659;-72
2021/05/12 08:50:23;;;;;;;4.47;2.50;;;;;;;19.61;45.98;100405.19;5066333;28;20207;-72
2021/05/12 08:52:52;;;;;;;3.53;2.50;;;;;;;19.38;44.76;100407.69;5067769;28;20641;-72
2021/05/12 08:55:21;;;;;;;4.67;2.40;;;;;;;19.40;46.26;100405.66;5067519;28;20721;-72
2021/05/12 08:57:50;;;;;;;3.03;2.30;;;;;;;19.38;45.19;100405.81;5071548;28;20640;-72
2021/05/12 09:00:20;;;;;;;3.23;2.33;;;;;;;19.24;45.42;100388.25;5066633;28;20264;-71
2021/05/12 09:02:49;;;;;;;9.33;2.50;;;;;;;19.41;45.68;100397.31;5066820;28;20228;-72
2021/05/12 09:05:16;;;;;;;3.63;1.97;;;;;;;19.39;46.02;100402.06;5057656;28;20212;-72
2021/05/12 09:07:45;;;;;;;6.17;2.30;;;;;;;19.52;46.30;100407.84;5053557;28;20462;-72
2021/05/12 09:10:13;;;;;;;4.80;2.50;;;;;;;19.58;45.10;100409.06;5068186;28;20213;-71
2021/05/12 09:12:45;;;;;;;6.07;2.20;;;;;;;19.67;46.74;100410.81;5063724;28;20193;-72
2021/05/12 09:15:16;;;;;;;2.77;2.20;;;;;;;19.77;45.80;100403.28;5067317;28;20201;-72
2021/05/12 09:17:47;;;;;;;5.67;2.23;;;;;;;19.67;45.36;100397.19;5053687;28;20194;-71
2021/05/12 09:20:37;;;;;;;5.13;2.37;;;;;;;19.61;46.09;100389.69;5064260;28;20287;-72
2021/05/12 09:23:17;;;;;;;5.77;2.50;;;;;;;19.64;44.73;100396.66;5065396;28;20278;-71
2021/05/12 09:25:57;;;;;;;3.00;2.23;;;;;;;19.52;44.31;100391.50;5058375;28;20197;-72
2021/05/12 09:28:28;;;;;;;7.40;2.87;;;;;;;19.53;44.54;100398.69;5063118;28;20328;-72
2021/05/12 09:31:05;;;;;;;10.10;2.10;;;;;;;19.74;46.54;100400.91;5068353;28;20205;-72
2021/05/12 09:33:38;;;;;;;8.63;2.40;;;;;;;19.75;44.42;100399.88;5064425;28;20722;-71
2021/05/12 09:36:08;;;;;;;2.57;2.17;;;;;;;19.69;45.77;100346.09;5042136;28;20890;-72
2021/05/12 09:38:36;;;;;;;3.47;2.17;;;;;;;19.97;45.78;100375.69;5064422;28;20942;-72
2021/05/12 09:41:09;;;;;;;4.80;2.77;;;;;;;20.15;44.81;100381.75;5037644;28;20198;-72
2021/05/12 09:43:41;;;;;;;7.23;2.03;;;;;;;20.19;44.34;100376.78;5061939;28;20197;-72
2021/05/12 09:46:17;;;;;;;3.43;2.17;;;;;;;20.34;44.67;100377.78;5059638;28;20255;-72
2021/05/12 09:49:06;;;;;;;5.07;2.30;;;;;;;20.44;43.84;100376.56;5060530;28;20189;-72
2021/05/12 09:51:37;;;;;;;2.07;1.87;;;;;;;20.65;43.66;100384.16;5060768;28;20771;-72
2021/05/12 09:54:08;;;;;;;4.87;2.10;;;;;;;20.51;43.43;100384.91;5061438;28;20223;-71
2021/05/12 09:56:37;;;;;;;2.37;1.87;;;;;;;20.55;44.73;100390.88;5050615;28;20687;-71
2021/05/12 09:59:08;;;;;;;5.03;2.10;;;;;;;20.74;43.81;100382.22;5065860;28;20200;-70
2021/05/12 10:01:44;;;;;;;2.80;2.20;;;;;;;20.59;42.25;100381.28;5051769;28;20201;-70
2021/05/12 10:04:30;;;;;;;2.90;1.97;;;;;;;20.55;42.00;100388.13;5058416;28;20204;-71
2021/05/12 10:06:59;;;;;;;3.47;2.37;;;;;;;20.51;42.59;100393.09;5061575;28;20205;-71
2021/05/12 10:09:28;;;;;;;2.77;2.10;;;;;;;20.39;42.99;100380.81;5059530;28;20193;-71
2021/05/12 10:12:03;;;;;;;3.30;2.23;;;;;;;20.46;42.38;100385.41;5059920;28;20288;-71
2021/05/12 10:14:32;;;;;;;2.13;1.90;;;;;;;20.40;43.04;100377.09;5059740;28;20344;-72
2021/05/12 10:17:07;;;;;;;2.27;1.90;;;;;;;20.34;43.63;100370.44;5060720;28;20202;-71
2021/05/12 10:19:38;;;;;;;3.17;2.20;;;;;;;20.34;44.53;100369.59;5053529;28;20194;-72
2021/05/12 10:22:07;;;;;;;4.30;1.97;;;;;;;20.59;43.89;100379.41;5042034;28;20225;-72
2021/05/12 10:24:39;;;;;;;2.50;1.80;;;;;;;20.50;43.13;100380.44;5034639;28;20336;-72
2021/05/12 10:27:09;;;;;;;3.37;2.20;;;;;;;20.61;42.93;100387.41;5057680;28;20229;-72
2021/05/12 10:29:38;;;;;;;2.00;1.90;;;;;;;20.48;42.74;100387.97;5059337;28;20676;-71
2021/05/12 10:32:26;;;;;;;6.27;2.57;;;;;;;20.20;42.27;100392.13;5054908;28;20216;-71
2021/05/12 10:35:03;;;;;;;3.37;2.33;;;;;;;20.07;43.26;100387.22;5062174;28;20585;-72
2021/05/12 10:37:32;;;;;;;3.53;2.17;;;;;;;20.47;42.35;100391.72;5065663;28;20197;-72
2021/05/12 10:40:03;;;;;;;3.23;2.40;;;;;;;20.45;43.93;100393.78;5065143;28;20209;-73
2021/05/12 10:42:57;;;;;;;5.37;2.20;;;;;;;20.29;42.61;100375.56;5065415;28;20657;-72
2021/05/12 10:45:57;;;;;;;7.57;2.13;;;;;;;20.13;42.90;100379.19;5062889;28;20206;-73
2021/05/12 10:48:43;;;;;;;3.20;2.13;;;;;;;20.06;43.76;100380.06;5069338;28;20641;-71
2021/05/12 10:51:30;;;;;;;3.37;2.00;;;;;;;19.97;42.45;100384.69;5063356;28;20194;-72
2021/05/12 10:54:01;;;;;;;3.40;2.37;;;;;;;19.98;42.58;100380.94;5060724;28;20228;-71
2021/05/12 10:56:36;;;;;;;2.93;2.10;;;;;;;20.23;42.58;100375.44;5056785;28;20656;-71
2021/05/12 10:59:05;;;;;;;4.67;2.13;;;;;;;20.36;43.64;100364.81;5062044;28;20211;-72
2021/05/12 11:01:36;;;;;;;3.20;2.00;;;;;;;20.25;41.68;100354.28;5060230;28;20204;-73
2021/05/12 11:04:08;;;;;;;2.43;2.03;;;;;;;20.33;42.93;100371.47;5051740;28;20654;-73
2021/05/12 11:07:10;;;;;;;2.83;2.00;;;;;;;20.66;41.82;100366.75;5065778;28;20200;-73
2021/05/12 11:09:47;;;;;;;3.27;2.07;;;;;;;20.65;41.91;100378.69;5069980;28;20571;-72
2021/05/12 11:12:23;;;;;;;6.07;2.40;;;;;;;20.59;40.84;100363.03;5069856;28;20200;-72
2021/05/12 11:14:56;;;;;;;3.50;2.10;;;;;;;20.52;42.94;100375.69;5067552;28;20217;-72
2021/05/12 11:17:42;;;;;;;2.67;2.00;;;;;;;20.72;41.37;100367.91;5071235;28;20461;-71
2021/05/12 11:20:19;;;;;;;3.93;2.00;;;;;;;20.71;42.26;100364.31;5067666;28;20668;-72
2021/05/12 11:22:48;;;;;;;3.87;2.40;;;;;;;20.66;40.62;100382.28;5047871;28;20227;-72
2021/05/12 11:33:42;;;;;;;2.83;2.07;;;;;;;20.38;42.95;100379.97;5054074;28;20219;-70
2021/05/12 11:36:12;;;;;;;8.63;2.20;;;;;;;20.53;43.40;100363.75;5052376;28;20296;-71
2021/05/12 11:38:42;;;;;;;4.03;2.10;;;;;;;20.23;41.25;100334.53;5068673;28;20641;-72
2021/05/12 11:41:19;;;;;;;5.73;2.50;;;;;;;20.59;42.97;100373.94;5070700;28;20197;-72
2021/05/12 11:43:49;;;;;;;5.20;2.13;;;;;;;20.57;42.29;100365.09;5067188;28;20213;-71
2021/05/12 11:46:18;;;;;;;3.93;2.00;;;;;;;20.53;42.43;100358.31;5065305;28;20202;-72
2021/05/12 11:48:49;;;;;;;2.30;2.00;;;;;;;20.69;42.30;100355.47;5070953;28;20197;-71
2021/05/12 11:51:27;;;;;;;6.03;2.40;;;;;;;20.56;42.00;100365.28;5067535;28;20208;-72